Time;durP1;ratioP1;P1;durP2;ratioP2;P2;SDS_P1;SDS_P2;PMS_P1;PMS_P2;Temp;Humidity;BMP_temperature;BMP_pressure;BME280_temperature;BME280_humidity;BME280_pressure;Samples;Min_cycle;Max_cycle;Signal;HPM_P1;HPM_P2
2023/06/21 00:00:17;;;;;;;19.85;18.05;;;19.70;99.90;;;;;;5109772;28;20051;-75
2023/06/21 00:02:50;;;;;;;21.15;17.55;;;19.80;99.90;;;;;;5107225;28;20041;-76
2023/06/21 00:05:17;;;;;;;19.75;17.77;;;19.80;99.90;;;;;;5136521;28;20027;-75
2023/06/21 00:07:47;;;;;;;18.52;16.73;;;19.90;99.90;;;;;;5113277;28;20126;-75
2023/06/21 00:10:16;;;;;;;20.40;18.13;;;19.80;99.90;;;;;;5092665;28;20067;-77
2023/06/21 00:12:43;;;;;;;19.98;17.88;;;19.70;99.90;;;;;;5112241;28;20229;-76
2023/06/21 00:15:11;;;;;;;20.65;18.30;;;19.70;99.90;;;;;;5112394;28;20062;-75
2023/06/21 00:17:39;;;;;;;21.13;18.13;;;19.70;99.90;;;;;;5110012;28;20057;-75
2023/06/21 00:20:09;;;;;;;20.02;17.92;;;19.70;99.90;;;;;;5110689;28;20044;-76
2023/06/21 00:22:36;;;;;;;19.70;17.60;;;19.60;99.90;;;;;;5110882;28;20050;-74
2023/06/21 00:25:05;;;;;;;20.33;18.25;;;19.50;99.90;;;;;;5110507;28;20040;-75
2023/06/21 00:27:34;;;;;;;21.05;17.67;;;19.40;99.90;;;;;;5109032;28;20061;-75
2023/06/21 00:30:01;;;;;;;20.58;18.42;;;19.40;99.90;;;;;;5092382;28;20039;-74
2023/06/21 00:32:30;;;;;;;20.13;18.02;;;19.40;99.90;;;;;;5109900;28;20040;-76
2023/06/21 00:34:57;;;;;;;19.98;18.00;;;19.30;99.90;;;;;;5109724;28;20035;-75
2023/06/21 00:37:26;;;;;;;19.98;18.00;;;19.40;99.90;;;;;;5109759;28;20039;-74
2023/06/21 00:39:53;;;;;;;20.20;18.15;;;19.50;99.90;;;;;;5089886;28;20183;-74
2023/06/21 00:42:23;;;;;;;19.73;17.63;;;19.40;99.90;;;;;;5092304;28;20107;-74
2023/06/21 00:44:51;;;;;;;22.77;18.77;;;19.30;99.90;;;;;;5091712;28;20051;-75
2023/06/21 00:47:19;;;;;;;21.52;18.08;;;19.20;99.90;;;;;;5109393;28;20043;-74
2023/06/21 00:49:46;;;;;;;19.75;17.70;;;19.20;99.90;;;;;;5109706;28;20097;-75
2023/06/21 00:52:14;;;;;;;22.75;20.33;;;19.20;99.90;;;;;;5108353;28;20100;-75
2023/06/21 00:54:43;;;;;;;21.65;19.40;;;19.20;99.90;;;;;;5109303;28;20077;-77
2023/06/21 00:57:11;;;;;;;19.35;17.48;;;19.20;99.90;;;;;;5108401;28;20127;-74
2023/06/21 00:59:39;;;;;;;20.42;18.35;;;19.20;99.90;;;;;;5091709;28;20070;-74
2023/06/21 01:02:08;;;;;;;20.42;18.30;;;19.20;99.90;;;;;;5109163;28;20054;-75
2023/06/21 01:04:36;;;;;;;20.75;18.65;;;19.20;99.90;;;;;;5091688;28;20093;-74
2023/06/21 05:48:03;;;;;;;18.33;16.77;;;36.40;99.90;;;;;;5097614;22;20054;-77
2023/06/21 05:50:30;;;;;;;21.08;19.15;;;37.00;99.90;;;;;;5079193;28;20136;-79
2023/06/21 05:52:58;;;;;;;19.77;17.95;;;36.70;99.90;;;;;;5060917;28;20044;-77
2023/06/21 05:55:26;;;;;;;16.23;14.70;;;36.80;99.90;;;;;;5081840;28;20395;-81
2023/06/21 05:57:53;;;;;;;17.58;16.02;;;36.50;99.90;;;;;;5084185;28;20410;-77
2023/06/21 06:00:21;;;;;;;18.45;16.80;;;36.40;99.90;;;;;;5087783;28;20032;-78
2023/06/21 06:02:48;;;;;;;16.30;14.88;;;36.60;99.90;;;;;;5087949;28;20044;-77
2023/06/21 06:05:18;;;;;;;17.25;15.63;;;36.60;99.90;;;;;;5087138;28;20062;-76
2023/06/21 06:07:45;;;;;;;17.23;15.55;;;36.60;99.90;;;;;;5089332;28;20127;-77
2023/06/21 06:10:12;;;;;;;17.50;15.90;;;36.10;99.90;;;;;;5088121;28;20118;-76
2023/06/21 06:12:40;;;;;;;17.73;16.13;;;35.70;99.90;;;;;;5088156;28;20048;-77
2023/06/21 06:15:08;;;;;;;18.55;16.85;;;35.70;99.90;;;;;;5087356;28;20083;-78
2023/06/21 06:17:36;;;;;;;21.55;19.45;;;35.60;99.90;;;;;;5087455;28;20059;-77
2023/06/21 06:20:05;;;;;;;16.95;15.25;;;35.70;99.90;;;;;;5087802;28;20040;-76
2023/06/21 06:22:36;;;;;;;18.30;16.52;;;35.60;99.90;;;;;;5087821;28;20093;-77
2023/06/21 06:25:03;;;;;;;18.13;16.42;;;35.40;99.90;;;;;;5087850;28;20047;-77
2023/06/21 06:27:31;;;;;;;18.58;16.65;;;35.00;99.90;;;;;;5087158;28;20394;-76
2023/06/21 06:29:58;;;;;;;19.75;17.67;;;34.70;99.90;;;;;;5087046;28;20151;-77
2023/06/21 06:32:26;;;;;;;21.52;19.38;;;34.20;99.90;;;;;;5091967;28;20044;-76
2023/06/21 06:34:54;;;;;;;20.98;18.83;;;33.60;99.90;;;;;;5091578;28;20048;-78
2023/06/21 06:37:24;;;;;;;27.38;21.35;;;33.20;99.90;;;;;;5090611;28;20051;-78
2023/06/21 06:39:54;;;;;;;25.02;22.52;;;33.00;99.90;;;;;;5090744;28;20048;-78
2023/06/21 06:42:21;;;;;;;26.38;23.17;;;32.30;99.90;;;;;;5090407;28;20056;-77
2023/06/21 06:44:50;;;;;;;30.75;26.60;;;31.60;99.90;;;;;;5090648;28;20036;-76
2023/06/21 06:47:18;;;;;;;31.23;27.58;;;31.00;99.90;;;;;;5090598;28;20040;-77
2023/06/21 06:49:45;;;;;;;32.90;29.52;;;29.90;99.90;;;;;;5090834;28;20389;-77
2023/06/21 06:52:13;;;;;;;33.97;28.13;;;29.70;99.90;;;;;;5091550;28;20052;-77
2023/06/21 06:54:41;;;;;;;28.77;25.52;;;29.40;99.90;;;;;;5090011;28;20070;-77
2023/06/21 06:57:10;;;;;;;33.78;26.15;;;28.90;99.90;;;;;;5090522;28;20040;-77
2023/06/21 06:59:37;;;;;;;35.50;31.35;;;29.00;99.90;;;;;;5090147;28;20048;-76
2023/06/21 07:02:05;;;;;;;29.42;25.77;;;28.60;99.90;;;;;;5072545;28;20631;-76
2023/06/21 07:04:32;;;;;;;27.00;24.30;;;28.60;99.90;;;;;;5091599;28;20048;-77
2023/06/21 07:07:02;;;;;;;24.70;22.08;;;28.60;99.90;;;;;;5090115;28;20040;-77
2023/06/21 07:09:29;;;;;;;23.98;21.38;;;28.70;99.90;;;;;;5090266;28;20067;-76
2023/06/21 07:11:59;;;;;;;25.20;22.73;;;28.60;99.90;;;;;;5090301;28;20044;-77
2023/06/21 07:14:34;;;;;;;24.30;21.80;;;28.60;99.90;;;;;;5072611;28;20063;-75
2023/06/21 07:17:02;;;;;;;25.67;22.42;;;28.90;99.90;;;;;;5089198;28;20395;-74
2023/06/21 07:19:29;;;;;;;25.60;23.00;;;29.40;99.90;;;;;;5090612;28;20040;-74
2023/06/21 07:21:57;;;;;;;25.08;22.50;;;29.70;99.90;;;;;;5090753;28;20389;-75
2023/06/21 07:24:24;;;;;;;26.08;23.45;;;30.00;99.90;;;;;;5090733;28;20066;-75
2023/06/21 07:26:52;;;;;;;25.33;22.88;;;30.40;99.90;;;;;;5090297;28;20122;-75
2023/06/21 07:29:19;;;;;;;25.90;23.17;;;30.60;99.90;;;;;;5089727;28;20047;-73
2023/06/21 07:31:48;;;;;;;24.33;21.83;;;30.80;99.90;;;;;;5073097;28;20357;-77
2023/06/21 07:34:15;;;;;;;26.95;23.90;;;30.90;99.90;;;;;;5091983;28;20062;-75
2023/06/21 07:36:43;;;;;;;24.83;22.42;;;31.00;99.90;;;;;;5092292;28;20050;-75
2023/06/21 07:39:13;;;;;;;29.33;26.25;;;30.80;99.90;;;;;;5092588;28;20043;-75
2023/06/21 07:41:40;;;;;;;27.67;24.88;;;30.90;99.90;;;;;;5093257;28;20109;-77
2023/06/21 07:44:08;;;;;;;26.17;23.70;;;31.00;99.90;;;;;;5093340;28;20051;-75
2023/06/21 07:46:35;;;;;;;25.65;23.20;;;30.80;99.90;;;;;;5082868;28;20051;-76
2023/06/21 07:49:04;;;;;;;25.20;22.75;;;31.00;99.90;;;;;;5089988;28;20127;-76
2023/06/21 07:51:32;;;;;;;26.48;23.70;;;31.20;99.90;;;;;;5090523;28;20126;-76
2023/06/21 07:53:59;;;;;;;26.48;24.00;;;31.40;99.90;;;;;;5090604;28;20048;-76
2023/06/21 07:56:26;;;;;;;26.50;23.83;;;31.70;99.90;;;;;;5090465;28;20118;-74
2023/06/21 07:58:54;;;;;;;26.00;23.45;;;32.00;99.90;;;;;;5089937;28;20040;-75
2023/06/21 08:01:21;;;;;;;26.40;23.83;;;32.10;99.90;;;;;;5071317;28;20059;-75
2023/06/21 08:03:49;;;;;;;28.33;25.42;;;31.80;99.90;;;;;;5089204;28;20036;-75
2023/06/21 08:06:18;;;;;;;29.42;26.65;;;32.00;99.90;;;;;;5089629;28;20040;-75
2023/06/21 08:08:45;;;;;;;26.05;23.45;;;32.10;99.90;;;;;;5088612;28;20042;-76
2023/06/21 08:11:13;;;;;;;25.50;22.80;;;31.90;99.90;;;;;;5090292;28;20040;-75
2023/06/21 08:13:40;;;;;;;24.90;22.55;;;32.10;99.90;;;;;;5090487;28;20059;-76
2023/06/21 08:16:07;;;;;;;27.38;24.70;;;32.40;99.90;;;;;;5088876;28;20155;-76
2023/06/21 08:18:36;;;;;;;26.20;23.45;;;32.50;99.90;;;;;;5089917;28;20404;-74
2023/06/21 08:21:05;;;;;;;25.58;23.05;;;32.20;99.90;;;;;;5089108;28;20101;-75
2023/06/21 08:23:34;;;;;;;26.23;23.63;;;32.30;99.90;;;;;;5089150;28;20044;-77
2023/06/21 08:26:03;;;;;;;25.05;22.52;;;32.70;99.90;;;;;;5089037;28;20036;-74
2023/06/21 08:28:31;;;;;;;23.98;21.77;;;32.90;99.90;;;;;;5089579;28;20047;-74
2023/06/21 08:30:58;;;;;;;26.90;24.27;;;33.00;99.90;;;;;;5088269;28;20047;-76
2023/06/21 08:33:26;;;;;;;23.17;21.10;;;32.50;99.90;;;;;;5089300;28;20093;-75
2023/06/21 08:35:53;;;;;;;22.48;20.17;;;32.30;99.90;;;;;;5067430;28;20040;-75
2023/06/21 08:38:21;;;;;;;24.55;21.98;;;32.40;99.90;;;;;;5087009;28;20495;-76
2023/06/21 08:40:49;;;;;;;23.13;20.83;;;32.50;99.90;;;;;;5088010;28;20068;-76
2023/06/21 08:43:17;;;;;;;27.27;22.65;;;32.30;99.90;;;;;;5089402;28;20506;-74
2023/06/21 08:45:46;;;;;;;23.80;21.25;;;32.40;99.90;;;;;;5088945;28;20048;-75
2023/06/21 08:48:14;;;;;;;21.48;19.58;;;32.20;99.90;;;;;;5087942;28;20059;-75
2023/06/21 08:50:44;;;;;;;23.33;21.02;;;32.20;99.90;;;;;;5088317;28;20040;-76
2023/06/21 08:53:16;;;;;;;25.02;21.35;;;32.10;99.90;;;;;;5083295;28;20527;-74
2023/06/21 08:55:44;;;;;;;25.40;22.90;;;32.00;99.90;;;;;;5089083;28;20450;-75
2023/06/21 08:58:20;;;;;;;24.40;21.88;;;31.70;99.90;;;;;;5067793;28;20052;-75
2023/06/21 09:00:53;;;;;;;18.95;17.00;;;32.00;99.90;;;;;;5088547;28;20131;-75
2023/06/21 09:03:26;;;;;;;22.88;18.75;;;31.80;99.90;;;;;;5087918;28;20068;-75
2023/06/21 09:05:58;;;;;;;23.08;19.55;;;31.90;99.90;;;;;;5088139;28;20066;-76
2023/06/21 09:08:26;;;;;;;25.20;18.90;;;31.90;99.90;;;;;;5088665;28;20498;-74
2023/06/21 09:10:54;;;;;;;21.25;19.10;;;32.00;99.90;;;;;;5088512;28;20626;-76
2023/06/21 09:13:24;;;;;;;23.63;20.23;;;32.10;99.90;;;;;;5088846;28;20070;-76
2023/06/21 09:15:52;;;;;;;21.13;18.92;;;32.20;99.90;;;;;;5087733;28;20526;-76
2023/06/21 09:18:20;;;;;;;18.05;16.33;;;32.40;99.90;;;;;;5088874;28;20064;-77
2023/06/21 09:20:49;;;;;;;18.77;16.98;;;32.70;99.90;;;;;;5088926;28;20040;-75
2023/06/21 09:23:17;;;;;;;24.48;22.00;;;32.90;99.90;;;;;;5067464;28;20041;-76
2023/06/21 09:25:45;;;;;;;23.88;19.05;;;33.10;99.90;;;;;;5088848;28;20039;-76
2023/06/21 09:28:12;;;;;;;19.05;17.25;;;33.40;99.90;;;;;;5086904;28;20047;-75
2023/06/21 09:30:42;;;;;;;18.52;16.60;;;33.60;99.90;;;;;;5088485;28;20046;-76
2023/06/21 09:33:10;;;;;;;19.90;18.00;;;34.00;99.90;;;;;;5088037;28;20568;-77
2023/06/21 09:35:38;;;;;;;19.90;17.10;;;34.00;99.90;;;;;;5087806;28;20051;-76
2023/06/21 09:38:22;;;;;;;18.35;16.52;;;34.20;99.90;;;;;;5087571;28;20060;-76
2023/06/21 09:40:49;;;;;;;17.63;15.68;;;34.20;99.90;;;;;;5087903;28;20059;-76
2023/06/21 09:43:21;;;;;;;17.50;15.80;;;34.00;99.90;;;;;;5088723;28;20079;-76
2023/06/21 09:46:07;;;;;;;16.98;15.40;;;33.80;99.90;;;;;;5087320;28;20070;-77
2023/06/21 09:48:35;;;;;;;16.70;15.00;;;33.60;99.90;;;;;;5087297;28;20071;-76
2023/06/21 09:51:04;;;;;;;15.55;13.73;;;33.50;99.90;;;;;;5065513;28;20045;-77
2023/06/21 09:53:32;;;;;;;16.38;14.77;;;33.30;99.90;;;;;;5086955;28;20101;-75
2023/06/21 09:56:00;;;;;;;19.00;16.95;;;33.30;99.90;;;;;;5065818;28;20052;-77
2023/06/21 09:58:54;;;;;;;18.17;15.25;;;33.30;99.90;;;;;;5087728;28;20040;-76
2023/06/21 10:01:24;;;;;;;14.38;12.88;;;33.10;99.90;;;;;;5079376;28;20040;-78
2023/06/21 10:03:51;;;;;;;15.35;13.85;;;32.90;99.90;;;;;;5086556;28;20069;-77
2023/06/21 10:06:29;;;;;;;17.38;14.35;;;32.80;99.90;;;;;;5087351;28;20048;-75
2023/06/21 10:08:57;;;;;;;19.73;17.80;;;32.80;99.90;;;;;;5086852;28;20511;-76
2023/06/21 10:11:24;;;;;;;15.48;13.93;;;32.90;99.90;;;;;;5086285;28;20044;-77
2023/06/21 10:13:54;;;;;;;16.45;14.57;;;33.00;99.90;;;;;;5087234;28;20051;-77
2023/06/21 10:16:24;;;;;;;13.85;12.45;;;33.00;99.90;;;;;;5088494;28;20067;-76
2023/06/21 10:18:54;;;;;;;14.38;12.88;;;32.80;99.90;;;;;;5087271;28;20511;-78
2023/06/21 10:21:23;;;;;;;14.70;12.80;;;33.10;99.90;;;;;;5087949;28;20044;-75
2023/06/21 10:23:51;;;;;;;13.30;12.10;;;33.30;99.90;;;;;;5087396;28;20488;-77
2023/06/21 10:26:20;;;;;;;17.13;15.30;;;33.50;99.90;;;;;;5087580;28;20128;-77
2023/06/21 10:28:56;;;;;;;15.75;14.30;;;33.50;99.90;;;;;;5086248;28;20044;-76
2023/06/21 10:31:27;;;;;;;40.63;36.30;;;33.60;99.90;;;;;;5087907;28;20051;-77
2023/06/21 10:33:56;;;;;;;18.10;14.10;;;33.70;99.90;;;;;;5088093;28;20036;-77
2023/06/21 10:36:28;;;;;;;13.85;12.45;;;33.80;99.90;;;;;;5087158;28;20126;-77
2023/06/21 10:39:02;;;;;;;16.23;13.32;;;33.80;99.90;;;;;;5086467;28;20067;-77
2023/06/21 10:41:31;;;;;;;20.33;14.57;;;33.90;99.90;;;;;;5069096;28;20052;-77
2023/06/21 10:44:00;;;;;;;14.82;11.88;;;33.60;99.90;;;;;;5087630;28;20127;-77
2023/06/21 10:46:29;;;;;;;12.55;11.23;;;33.80;99.90;;;;;;5087476;28;20622;-77
2023/06/21 10:48:57;;;;;;;12.27;10.98;;;33.70;99.90;;;;;;5086434;28;20044;-77
2023/06/21 10:51:25;;;;;;;13.07;11.77;;;33.60;99.90;;;;;;5087584;28;20036;-76
2023/06/21 10:53:55;;;;;;;13.23;11.88;;;33.60;99.90;;;;;;5087316;28;20131;-77
2023/06/21 10:56:25;;;;;;;15.80;14.13;;;33.60;99.90;;;;;;5087638;28;20107;-78
2023/06/21 10:58:52;;;;;;;13.55;12.25;;;33.60;99.90;;;;;;5086700;28;20036;-77
2023/06/21 11:01:22;;;;;;;12.75;11.13;;;33.60;99.90;;;;;;5087700;28;20052;-78
2023/06/21 11:03:52;;;;;;;13.15;11.73;;;33.70;99.90;;;;;;5086595;28;20052;-78
2023/06/21 11:06:28;;;;;;;13.90;12.43;;;33.40;99.90;;;;;;5066770;28;20159;-77
2023/06/21 11:08:56;;;;;;;13.48;11.70;;;33.30;99.90;;;;;;5086767;28;20047;-78
2023/06/21 11:11:31;;;;;;;12.93;11.65;;;33.10;99.90;;;;;;5087625;28;20063;-78
2023/06/21 11:14:01;;;;;;;14.85;11.68;;;33.10;99.90;;;;;;5086469;28;20118;-77
2023/06/21 11:16:32;;;;;;;14.63;13.00;;;32.90;99.90;;;;;;5088576;28;20056;-77
2023/06/21 11:19:05;;;;;;;15.18;12.68;;;33.10;99.90;;;;;;5090445;28;20127;-76
2023/06/21 11:21:40;;;;;;;14.30;12.98;;;33.10;99.90;;;;;;5090668;28;20050;-78
2023/06/21 11:24:09;;;;;;;15.30;13.82;;;33.10;99.90;;;;;;5091084;28;20048;-77
2023/06/21 11:26:57;;;;;;;14.05;12.65;;;33.20;99.90;;;;;;5090668;28;20537;-77
2023/06/21 11:29:27;;;;;;;15.40;13.25;;;33.10;99.90;;;;;;5090629;28;20040;-76
2023/06/21 11:32:11;;;;;;;17.65;14.32;;;32.80;99.90;;;;;;5090357;28;20531;-77
2023/06/21 11:34:53;;;;;;;13.77;12.32;;;32.80;99.90;;;;;;5083885;28;20153;-77
2023/06/21 11:37:40;;;;;;;14.30;12.57;;;32.90;99.90;;;;;;5090895;28;20156;-76
2023/06/21 11:40:09;;;;;;;13.82;11.55;;;32.90;99.90;;;;;;5093866;28;20036;-75
2023/06/21 11:42:38;;;;;;;12.65;11.18;;;33.00;99.90;;;;;;5086524;28;20045;-76
2023/06/21 11:45:23;;;;;;;13.48;12.07;;;32.90;99.90;;;;;;5091025;28;20036;-77
2023/06/21 11:48:02;;;;;;;13.10;11.77;;;32.90;99.90;;;;;;5088988;28;20503;-77
2023/06/21 11:50:35;;;;;;;12.93;11.38;;;32.80;99.90;;;;;;5075233;22;20049;-79
2023/06/21 11:53:20;;;;;;;13.35;11.70;;;32.80;99.90;;;;;;5060086;28;20044;-78
2023/06/21 11:55:50;;;;;;;12.68;11.38;;;32.90;99.90;;;;;;5059816;28;20064;-79
2023/06/21 11:58:18;;;;;;;14.48;12.70;;;33.00;99.90;;;;;;5059590;28;20041;-78
2023/06/21 12:00:46;;;;;;;12.32;11.13;;;32.90;99.90;;;;;;5059587;28;20098;-77
2023/06/21 12:03:14;;;;;;;13.13;11.35;;;32.90;99.90;;;;;;5059527;28;20040;-76
2023/06/21 12:05:48;;;;;;;14.48;11.90;;;32.70;99.90;;;;;;5059616;28;20045;-77
2023/06/21 12:08:17;;;;;;;13.18;11.73;;;32.80;99.90;;;;;;5059229;28;20084;-77
2023/06/21 12:10:45;;;;;;;16.42;12.18;;;32.80;99.90;;;;;;5058938;28;20048;-77
2023/06/21 12:13:13;;;;;;;13.23;11.45;;;32.70;99.90;;;;;;5058443;28;20056;-79
2023/06/21 12:15:47;;;;;;;13.27;11.75;;;32.80;99.90;;;;;;5059821;28;20607;-77
2023/06/21 12:18:15;;;;;;;12.38;11.13;;;32.70;99.90;;;;;;5058345;28;20050;-76
2023/06/21 12:20:42;;;;;;;12.00;10.80;;;32.80;99.90;;;;;;5060033;28;20048;-78
2023/06/21 12:23:11;;;;;;;14.55;11.73;;;32.80;99.90;;;;;;5058585;28;20089;-78
2023/06/21 12:25:44;;;;;;;12.02;10.27;;;32.90;99.90;;;;;;5043200;28;20087;-78
2023/06/21 12:28:13;;;;;;;12.85;11.55;;;32.90;99.90;;;;;;5057963;28;20053;-77
2023/06/21 12:30:48;;;;;;;11.65;10.45;;;32.70;99.90;;;;;;5059139;28;20037;-77
2023/06/21 12:33:16;;;;;;;15.43;12.15;;;32.70;99.90;;;;;;5057943;28;20041;-78
2023/06/21 12:35:44;;;;;;;14.25;12.75;;;32.70;99.90;;;;;;5059865;28;20492;-78
2023/06/21 12:38:16;;;;;;;13.82;11.43;;;32.80;99.90;;;;;;5058080;28;20036;-79
2023/06/21 12:40:58;;;;;;;17.38;11.93;;;32.90;99.90;;;;;;5059491;28;20039;-83
2023/06/21 12:43:37;;;;;;;12.93;11.63;;;32.90;99.90;;;;;;5059989;28;20052;-81
2023/06/21 12:46:06;;;;;;;13.18;11.77;;;33.00;99.90;;;;;;5058615;28;20442;-77
2023/06/21 12:48:34;;;;;;;12.32;11.23;;;32.80;99.90;;;;;;5031643;28;20032;-81
2023/06/21 12:51:02;;;;;;;14.05;11.35;;;32.90;99.90;;;;;;5059276;28;20044;-83
2023/06/21 12:53:32;;;;;;;13.70;12.15;;;33.00;99.90;;;;;;5058722;28;20048;-82
2023/06/21 12:56:08;;;;;;;16.35;14.45;;;33.10;99.90;;;;;;5057496;28;20116;-79
2023/06/21 12:58:35;;;;;;;;;;;33.30;99.90;;;;;;5058000;28;20059;-78
2023/06/21 13:01:03;;;;;;;13.85;12.43;;;33.40;99.90;;;;;;5058445;28;19960;-80
2023/06/21 13:03:31;;;;;;;18.52;12.18;;;33.40;99.90;;;;;;5057855;28;20052;-78
2023/06/21 13:05:59;;;;;;;15.38;11.25;;;33.30;99.90;;;;;;5056700;28;21186;-83
2023/06/21 13:08:26;;;;;;;12.88;11.55;;;33.20;99.90;;;;;;5058492;28;20033;-79
2023/06/21 13:10:57;;;;;;;14.40;11.88;;;33.20;99.90;;;;;;5057379;28;20044;-79
2023/06/21 13:13:25;;;;;;;12.35;11.15;;;33.30;99.90;;;;;;5058718;28;20043;-77
2023/06/21 13:15:54;;;;;;;13.13;11.82;;;33.10;99.90;;;;;;5058756;28;20045;-79
2023/06/21 13:18:22;;;;;;;13.85;11.68;;;33.10;99.90;;;;;;5042395;28;20049;-79
2023/06/21 13:20:51;;;;;;;13.25;11.88;;;33.30;99.90;;;;;;5058705;28;20076;-79
2023/06/21 13:23:18;;;;;;;15.07;12.23;;;33.20;99.90;;;;;;5058377;28;20116;-79
2023/06/21 13:25:47;;;;;;;13.50;12.30;;;33.20;99.90;;;;;;5057859;28;20181;-77
2023/06/21 13:28:16;;;;;;;13.70;12.35;;;33.10;99.90;;;;;;5060008;28;20067;-78
2023/06/21 13:30:44;;;;;;;13.18;11.88;;;33.00;99.90;;;;;;5059578;28;20083;-77
2023/06/21 13:33:13;;;;;;;13.50;11.85;;;33.00;99.90;;;;;;5039185;28;20446;-75
2023/06/21 13:35:41;;;;;;;13.95;12.48;;;33.00;99.90;;;;;;5059209;28;20041;-76
2023/06/21 13:38:09;;;;;;;13.10;11.55;;;32.90;99.90;;;;;;5039162;28;20043;-76
2023/06/21 13:40:36;;;;;;;12.90;11.30;;;32.90;99.90;;;;;;5058165;28;20090;-79
2023/06/21 13:43:04;;;;;;;14.45;12.00;;;32.90;99.90;;;;;;5039675;28;20041;-78
2023/06/21 13:45:33;;;;;;;13.55;12.07;;;32.90;99.90;;;;;;5057076;28;20129;-78
2023/06/21 13:48:00;;;;;;;12.13;10.98;;;32.90;99.90;;;;;;5056236;28;20048;-76
2023/06/21 13:50:28;;;;;;;15.73;12.00;;;32.70;99.90;;;;;;5058242;28;20091;-78
2023/06/21 13:52:55;;;;;;;13.82;11.50;;;32.60;99.90;;;;;;5057871;28;20037;-78
2023/06/21 13:55:23;;;;;;;13.27;11.63;;;32.70;99.90;;;;;;5040005;28;20562;-77
2023/06/21 13:57:52;;;;;;;12.55;10.75;;;32.70;99.90;;;;;;5057702;28;20120;-78
2023/06/21 14:00:20;;;;;;;12.82;11.48;;;32.70;99.90;;;;;;5057394;28;20082;-77
2023/06/21 14:02:51;;;;;;;12.90;11.60;;;32.70;99.90;;;;;;5057299;28;20438;-79
2023/06/21 14:05:19;;;;;;;13.30;11.38;;;32.70;99.90;;;;;;5057409;28;20559;-79
2023/06/21 14:07:47;;;;;;;14.02;12.52;;;32.80;99.90;;;;;;5057502;28;20508;-78
2023/06/21 14:10:15;;;;;;;12.95;11.65;;;32.80;99.90;;;;;;5328227;22;20389;-78
2023/06/21 14:12:44;;;;;;;13.45;12.02;;;32.80;99.90;;;;;;5036230;28;20052;-78
2023/06/21 14:15:12;;;;;;;19.50;14.73;;;32.70;99.90;;;;;;5038137;28;20444;-81
2023/06/21 14:17:40;;;;;;;12.40;11.10;;;32.70;99.90;;;;;;5036261;28;20045;-83
2023/06/21 14:20:13;;;;;;;15.02;11.30;;;32.90;99.90;;;;;;5037855;28;20045;-88
2023/06/21 14:22:40;;;;;;;14.65;11.70;;;32.80;99.90;;;;;;5037246;28;20041;-77
2023/06/21 14:25:09;;;;;;;12.77;11.45;;;32.90;99.90;;;;;;5036830;28;20041;-78
2023/06/21 14:27:36;;;;;;;12.82;10.80;;;32.80;99.90;;;;;;5036367;28;20045;-78
2023/06/21 14:30:14;;;;;;;15.07;10.80;;;32.80;99.90;;;;;;5036350;28;20514;-77
2023/06/21 14:32:42;;;;;;;14.80;10.25;;;32.80;99.90;;;;;;5019045;28;20048;-76
2023/06/21 14:35:11;;;;;;;13.10;10.93;;;32.70;99.90;;;;;;5036991;28;20045;-78
2023/06/21 14:37:38;;;;;;;14.02;11.07;;;32.70;99.90;;;;;;5036830;28;20051;-77
2023/06/21 14:40:09;;;;;;;15.25;12.05;;;32.70;99.90;;;;;;5036566;28;20045;-77
2023/06/21 14:42:36;;;;;;;18.40;12.70;;;32.80;99.90;;;;;;5036714;28;20480;-77
2023/06/21 14:45:04;;;;;;;12.95;10.65;;;32.90;99.90;;;;;;5035604;28;20041;-77
2023/06/21 14:47:34;;;;;;;13.32;11.07;;;32.90;99.90;;;;;;5037009;28;20060;-79
2023/06/21 14:50:05;;;;;;;14.27;10.93;;;32.90;99.90;;;;;;5036768;28;20464;-77
2023/06/21 14:52:34;;;;;;;13.05;11.50;;;32.80;99.90;;;;;;5021270;28;20053;-78
2023/06/21 14:55:06;;;;;;;13.70;11.35;;;32.70;99.90;;;;;;5038492;28;20038;-78
2023/06/21 14:57:33;;;;;;;15.85;11.68;;;32.60;99.90;;;;;;5038853;28;20045;-75
2023/06/21 15:00:00;;;;;;;11.50;10.23;;;32.70;99.90;;;;;;5040552;28;20045;-78
2023/06/21 15:02:28;;;;;;;13.43;10.90;;;32.70;99.90;;;;;;5040324;28;20040;-77
2023/06/21 15:04:55;;;;;;;12.95;10.45;;;32.70;99.90;;;;;;5041722;28;20503;-76
2023/06/21 15:07:23;;;;;;;12.23;10.23;;;32.70;99.90;;;;;;5039972;28;20037;-78
2023/06/21 15:09:53;;;;;;;13.27;10.00;;;32.70;99.90;;;;;;5039653;28;20049;-78
2023/06/21 15:12:20;;;;;;;13.00;10.40;;;32.70;99.90;;;;;;5040099;28;20065;-77
2023/06/21 15:14:47;;;;;;;15.27;10.43;;;32.60;99.90;;;;;;5040369;28;20508;-77
2023/06/21 15:17:15;;;;;;;13.43;10.13;;;32.60;99.90;;;;;;5039930;28;20047;-77
2023/06/21 15:19:42;;;;;;;14.85;10.23;;;32.50;99.90;;;;;;5040072;28;20056;-75
2023/06/21 15:22:10;;;;;;;12.70;9.27;;;32.50;99.90;;;;;;5041168;28;20055;-78
2023/06/21 15:24:38;;;;;;;14.57;10.30;;;32.50;99.90;;;;;;5040407;28;20042;-77
2023/06/21 15:27:07;;;;;;;12.68;10.10;;;32.50;99.90;;;;;;5040475;28;20075;-77
2023/06/21 15:29:34;;;;;;;14.77;10.35;;;32.50;99.90;;;;;;5038712;28;20041;-78
2023/06/21 15:32:02;;;;;;;15.60;11.15;;;32.60;99.90;;;;;;5037728;28;20041;-77
2023/06/21 15:34:29;;;;;;;14.65;10.23;;;32.60;99.90;;;;;;5041098;28;21739;-77
2023/06/21 15:36:57;;;;;;;16.75;11.88;;;32.60;99.90;;;;;;5040316;28;20507;-77
2023/06/21 15:39:24;;;;;;;15.93;12.45;;;32.50;99.90;;;;;;5040155;28;20041;-75
2023/06/21 15:41:52;;;;;;;12.48;11.10;;;32.50;99.90;;;;;;5039743;28;20042;-77
2023/06/21 15:44:20;;;;;;;15.10;10.40;;;32.50;99.90;;;;;;5020839;28;20045;-77
2023/06/21 15:46:48;;;;;;;15.75;11.18;;;32.30;99.90;;;;;;5039555;28;20033;-77
2023/06/21 15:49:15;;;;;;;14.23;11.93;;;32.30;99.90;;;;;;5038666;28;20072;-77
2023/06/21 15:51:43;;;;;;;16.02;11.23;;;32.40;99.90;;;;;;5040262;28;20049;-76
2023/06/21 15:54:10;;;;;;;13.50;12.02;;;32.40;99.90;;;;;;5038496;28;20041;-77
2023/06/21 15:56:38;;;;;;;18.33;14.40;;;32.40;99.90;;;;;;5039408;28;20045;-76
2023/06/21 15:59:05;;;;;;;15.70;11.57;;;32.40;99.90;;;;;;5038874;28;20381;-78
2023/06/21 16:01:34;;;;;;;17.98;12.70;;;32.50;99.90;;;;;;5040280;28;20066;-78
2023/06/21 16:04:01;;;;;;;15.35;12.60;;;32.50;99.90;;;;;;5039016;28;20408;-77
2023/06/21 16:06:29;;;;;;;13.27;11.75;;;32.50;99.90;;;;;;5040263;28;20444;-77
2023/06/21 16:08:56;;;;;;;14.73;10.65;;;32.40;99.90;;;;;;5041716;28;20052;-76
2023/06/21 16:11:23;;;;;;;12.65;10.82;;;32.40;99.90;;;;;;5039353;28;20045;-76
2023/06/21 16:13:51;;;;;;;14.95;9.75;;;32.30;99.90;;;;;;5038380;28;20034;-74
2023/06/21 16:16:18;;;;;;;12.80;10.57;;;32.20;99.90;;;;;;5040060;28;20037;-75
2023/06/21 16:18:52;;;;;;;15.15;10.32;;;32.10;99.90;;;;;;5039262;28;20053;-76
2023/06/21 16:21:19;;;;;;;13.82;10.85;;;32.10;99.90;;;;;;5039813;28;20037;-76
2023/06/21 16:23:47;;;;;;;15.88;10.82;;;32.10;99.90;;;;;;5039571;28;20068;-78
2023/06/21 16:26:14;;;;;;;13.15;11.52;;;32.10;99.90;;;;;;5040325;28;20492;-75
2023/06/21 16:28:42;;;;;;;13.88;10.93;;;32.00;99.90;;;;;;5039782;28;20046;-78
2023/06/21 16:31:09;;;;;;;15.07;11.38;;;31.90;99.90;;;;;;5040280;28;20135;-76
2023/06/21 16:33:36;;;;;;;16.17;11.77;;;31.80;99.90;;;;;;5038322;28;20053;-77
2023/06/21 16:36:05;;;;;;;12.57;11.38;;;31.70;99.90;;;;;;5038490;28;20053;-78
2023/06/21 16:38:33;;;;;;;13.13;11.30;;;31.70;99.90;;;;;;5024779;28;20042;-77
2023/06/21 16:41:00;;;;;;;14.57;10.90;;;31.70;99.90;;;;;;5040687;28;20399;-79
2023/06/21 16:43:28;;;;;;;14.27;11.63;;;31.70;99.90;;;;;;5040320;28;20587;-78
2023/06/21 16:45:55;;;;;;;18.77;11.85;;;31.60;99.90;;;;;;5037834;28;20037;-77
2023/06/21 16:48:23;;;;;;;16.00;11.90;;;31.50;99.90;;;;;;5037708;28;20048;-77
2023/06/21 16:50:50;;;;;;;16.85;12.45;;;31.50;99.90;;;;;;5039176;28;20044;-76
2023/06/21 16:53:19;;;;;;;17.17;12.07;;;31.40;99.90;;;;;;5038642;28;20045;-76
2023/06/21 16:55:46;;;;;;;22.90;14.10;;;31.40;99.90;;;;;;5039551;28;20739;-79
2023/06/21 16:58:14;;;;;;;17.95;14.65;;;31.30;99.90;;;;;;5038239;28;20137;-77
2023/06/21 17:00:41;;;;;;;21.17;14.70;;;31.30;99.90;;;;;;5038942;28;20049;-77
2023/06/21 17:03:09;;;;;;;18.98;15.50;;;31.10;99.90;;;;;;5038882;28;20041;-78
2023/06/21 17:05:36;;;;;;;21.17;15.93;;;31.00;99.90;;;;;;5038172;28;20048;-76
2023/06/21 17:08:03;;;;;;;22.55;19.10;;;30.90;99.90;;;;;;5036714;28;20143;-76
2023/06/21 17:10:32;;;;;;;33.50;23.05;;;30.80;99.90;;;;;;5039574;28;20057;-77
2023/06/21 17:12:59;;;;;;;32.28;23.42;;;30.70;99.90;;;;;;5038597;28;20044;-75
2023/06/21 17:15:27;;;;;;;29.58;22.88;;;30.60;99.90;;;;;;5037055;28;20492;-76
2023/06/21 17:17:54;;;;;;;36.50;27.98;;;30.60;99.90;;;;;;5035429;28;20076;-76